Time;durP1;ratioP1;P1;durP2;ratioP2;P2;SDS_P1;SDS_P2;PMS_P1;PMS_P2;Temp;Humidity;BMP_temperature;BMP_pressure;BME280_temperature;BME280_humidity;BME280_pressure;Samples;Min_cycle;Max_cycle;Signal;HPM_P1;HPM_P2
2022/04/13 00:00:14;;;;;;;14.07;8.20;;;7.40;1.00;;;;;;6185959;23;20175;-86
2022/04/13 00:02:42;;;;;;;16.80;9.10;;;7.40;1.00;;;;;;6185711;23;20163;-86
2022/04/13 00:05:10;;;;;;;17.40;9.07;;;7.40;1.00;;;;;;6186019;23;20234;-87
2022/04/13 00:07:38;;;;;;;12.50;8.17;;;7.40;1.00;;;;;;6185940;23;20216;-87
2022/04/13 00:10:07;;;;;;;15.93;8.33;;;7.40;1.00;;;;;;6186059;23;20172;-88
2022/04/13 00:12:35;;;;;;;13.77;8.43;;;7.40;1.00;;;;;;6185934;23;20173;-88
2022/04/13 00:15:02;;;;;;;16.13;9.80;;;7.30;1.00;;;;;;6166298;23;20206;-88
2022/04/13 00:17:31;;;;;;;15.00;7.90;;;7.30;1.00;;;;;;6155685;23;20175;-87
2022/04/13 00:19:58;;;;;;;13.27;9.20;;;7.30;1.00;;;;;;6155719;23;20688;-88
2022/04/13 00:22:25;;;;;;;14.43;8.37;;;7.30;1.00;;;;;;6156066;23;20222;-87
2022/04/13 00:24:52;;;;;;;13.83;8.13;;;7.30;1.00;;;;;;6155573;23;20218;-87
2022/04/13 00:27:19;;;;;;;15.03;8.40;;;7.20;1.00;;;;;;6156201;23;20546;-87
2022/04/13 00:29:46;;;;;;;15.20;8.73;;;7.20;1.00;;;;;;6156121;23;20502;-88
2022/04/13 00:32:13;;;;;;;15.30;8.30;;;7.20;1.00;;;;;;6156036;23;20549;-87
2022/04/13 00:34:42;;;;;;;14.73;8.77;;;7.20;1.00;;;;;;6156433;23;20229;-89
2022/04/13 00:37:09;;;;;;;16.33;8.80;;;7.20;1.00;;;;;;6155974;23;20701;-88
2022/04/13 00:39:37;;;;;;;15.17;8.57;;;7.10;1.00;;;;;;6155412;23;20237;-87
2022/04/13 00:42:06;;;;;;;12.57;8.13;;;7.10;1.00;;;;;;6155754;23;20748;-88
2022/04/13 00:44:34;;;;;;;12.93;8.47;;;7.10;1.00;;;;;;6155908;23;20258;-91
2022/04/13 00:47:08;;;;;;;15.20;9.37;;;7.10;1.00;;;;;;6155486;23;20696;-88
2022/04/13 00:49:35;;;;;;;13.17;8.53;;;7.10;1.00;;;;;;6155796;23;20480;-87
2022/04/13 00:52:05;;;;;;;16.47;8.93;;;7.10;1.00;;;;;;6155376;23;20204;-87
2022/04/13 00:54:33;;;;;;;14.40;8.77;;;7.10;1.00;;;;;;6155981;23;20097;-87
2022/04/13 00:57:07;;;;;;;14.80;8.90;;;7.00;1.00;;;;;;6155353;23;20629;-90
2022/04/13 00:59:37;;;;;;;17.80;9.43;;;7.00;1.00;;;;;;6155478;23;20179;-88
2022/04/13 01:02:07;;;;;;;15.63;8.77;;;7.00;1.00;;;;;;6156033;23;20229;-87
2022/04/13 01:04:35;;;;;;;14.53;9.57;;;7.00;1.00;;;;;;6155563;23;20221;-90
2022/04/13 01:07:07;;;;;;;15.70;9.03;;;6.90;1.00;;;;;;6155646;23;20168;-89
2022/04/13 01:09:35;;;;;;;13.27;8.60;;;7.00;1.00;;;;;;6155480;23;20156;-89
2022/04/13 01:12:02;;;;;;;16.20;9.37;;;6.90;1.00;;;;;;6155765;23;20233;-89
2022/04/13 01:14:30;;;;;;;15.63;9.00;;;6.90;1.00;;;;;;6167774;23;20201;-89
2022/04/13 01:16:57;;;;;;;15.53;8.90;;;6.90;1.00;;;;;;6185486;23;20177;-89
2022/04/13 01:19:24;;;;;;;22.37;12.80;;;6.90;1.00;;;;;;6184767;23;20240;-90
2022/04/13 01:21:53;;;;;;;17.00;11.40;;;6.90;1.00;;;;;;6185121;23;20624;-90
2022/04/13 01:24:22;;;;;;;15.50;9.10;;;6.80;1.00;;;;;;6184847;23;20232;-90
2022/04/13 01:26:49;;;;;;;15.10;9.27;;;6.80;1.00;;;;;;6185327;23;20239;-89
2022/04/13 01:29:16;;;;;;;16.03;9.40;;;6.80;1.00;;;;;;6184948;23;20166;-90
2022/04/13 01:31:45;;;;;;;14.67;9.03;;;6.70;1.00;;;;;;6185689;23;20239;-89
2022/04/13 01:34:13;;;;;;;14.17;8.93;;;6.70;1.00;;;;;;6185442;23;20621;-89
2022/04/13 01:36:40;;;;;;;15.83;9.40;;;6.70;1.00;;;;;;6185211;23;20170;-89
2022/04/13 01:39:08;;;;;;;16.67;9.80;;;6.70;1.00;;;;;;6184921;23;20193;-89
2022/04/13 01:41:36;;;;;;;16.87;8.53;;;6.70;1.00;;;;;;6185244;23;20557;-89
2022/04/13 01:44:03;;;;;;;16.63;9.93;;;6.60;1.00;;;;;;6184841;23;20173;-90
2022/04/13 01:46:30;;;;;;;16.07;9.60;;;6.60;1.00;;;;;;6185102;23;20231;-89
2022/04/13 01:48:57;;;;;;;17.57;10.03;;;6.60;1.00;;;;;;6185237;23;20169;-89
2022/04/13 01:51:24;;;;;;;15.73;9.47;;;6.60;1.00;;;;;;6185180;23;20169;-90
2022/04/13 01:53:52;;;;;;;20.67;10.87;;;6.50;1.00;;;;;;6185120;23;20169;-89
2022/04/13 01:56:19;;;;;;;17.27;10.00;;;6.50;1.00;;;;;;6184963;23;20632;-90
2022/04/13 01:58:47;;;;;;;16.77;10.23;;;6.50;1.00;;;;;;6184949;23;20186;-90
2022/04/13 02:01:14;;;;;;;16.17;10.73;;;6.50;1.00;;;;;;6185572;23;20169;-90
2022/04/13 02:03:41;;;;;;;16.50;9.93;;;6.50;1.00;;;;;;6184723;23;20632;-89
2022/04/13 02:06:08;;;;;;;18.17;10.93;;;6.50;1.00;;;;;;6184906;23;20471;-88
2022/04/13 02:08:36;;;;;;;15.17;9.57;;;6.50;1.00;;;;;;6185119;23;20173;-89
2022/04/13 02:11:03;;;;;;;15.33;9.53;;;6.50;1.00;;;;;;6184645;23;20165;-89
2022/04/13 02:13:30;;;;;;;16.43;9.53;;;6.50;1.00;;;;;;6184682;23;20231;-89
2022/04/13 02:15:58;;;;;;;15.27;9.37;;;6.50;1.00;;;;;;6154947;23;20633;-89
2022/04/13 02:18:25;;;;;;;15.97;9.00;;;6.50;1.00;;;;;;6154844;23;20244;-89
2022/04/13 02:20:52;;;;;;;19.00;9.80;;;6.50;1.00;;;;;;6154860;23;20178;-89
2022/04/13 02:23:19;;;;;;;14.77;9.67;;;6.50;1.00;;;;;;6155481;23;20173;-89
2022/04/13 02:25:46;;;;;;;15.70;8.97;;;6.40;1.00;;;;;;6155513;23;20224;-89
2022/04/13 02:28:13;;;;;;;17.30;9.87;;;6.40;1.00;;;;;;6154776;23;20174;-89
2022/04/13 02:30:40;;;;;;;14.67;9.40;;;6.40;1.00;;;;;;6154921;23;20696;-89
2022/04/13 02:33:08;;;;;;;18.63;9.80;;;6.40;1.00;;;;;;6157257;23;20166;-90
2022/04/13 02:35:36;;;;;;;15.27;9.43;;;6.40;1.00;;;;;;6157138;23;20559;-89
2022/04/13 02:38:02;;;;;;;16.90;9.87;;;6.30;1.00;;;;;;6156867;23;20238;-89
2022/04/13 02:40:30;;;;;;;23.67;9.23;;;6.30;1.00;;;;;;6156868;23;20538;-88
2022/04/13 02:42:57;;;;;;;14.80;9.70;;;6.30;1.00;;;;;;6157000;23;20570;-89
2022/04/13 02:45:24;;;;;;;17.97;10.20;;;6.30;1.00;;;;;;6157082;23;20557;-88
2022/04/13 02:47:51;;;;;;;18.20;9.73;;;6.30;1.00;;;;;;6156930;23;20181;-89
2022/04/13 02:50:20;;;;;;;16.80;10.50;;;6.20;1.00;;;;;;6157184;23;20177;-89
2022/04/13 02:52:47;;;;;;;14.53;9.30;;;6.20;1.00;;;;;;6157074;23;20178;-88
2022/04/13 02:55:14;;;;;;;15.53;9.80;;;6.20;1.00;;;;;;6156890;23;20170;-89
2022/04/13 02:57:41;;;;;;;16.47;10.13;;;6.10;1.00;;;;;;6156808;23;20629;-90
2022/04/13 03:00:08;;;;;;;15.00;9.43;;;6.10;1.00;;;;;;6156690;23;20722;-89
2022/04/13 03:02:35;;;;;;;16.60;10.17;;;6.10;1.00;;;;;;6156377;23;20166;-89
2022/04/13 03:05:03;;;;;;;15.83;9.93;;;6.10;1.00;;;;;;6156942;23;20174;-90
2022/04/13 03:07:32;;;;;;;17.37;10.10;;;6.10;1.00;;;;;;6156291;23;20174;-89
2022/04/13 03:09:59;;;;;;;16.67;10.17;;;6.10;1.00;;;;;;6156879;23;20260;-89
2022/04/13 03:12:27;;;;;;;16.43;9.93;;;6.10;1.00;;;;;;6156407;23;20174;-89
2022/04/13 03:14:54;;;;;;;17.97;9.60;;;6.10;1.00;;;;;;6173623;23;20197;-89
2022/04/13 03:17:21;;;;;;;15.47;9.80;;;6.10;1.00;;;;;;6186446;23;20169;-88
2022/04/13 03:19:49;;;;;;;16.60;9.57;;;6.10;1.00;;;;;;6186055;23;20197;-88
2022/04/13 03:22:16;;;;;;;15.90;9.87;;;6.20;1.00;;;;;;6186102;23;20553;-89
2022/04/13 03:24:44;;;;;;;15.57;9.27;;;6.20;1.00;;;;;;6185932;23;20540;-89
2022/04/13 03:27:11;;;;;;;17.50;10.17;;;6.20;1.00;;;;;;6185852;23;20172;-88
2022/04/13 03:29:38;;;;;;;15.37;9.03;;;6.20;1.00;;;;;;6186507;23;20536;-88
2022/04/13 03:32:06;;;;;;;14.00;9.03;;;6.30;1.00;;;;;;6186467;23;20175;-88
2022/04/13 03:34:33;;;;;;;15.30;9.37;;;6.30;1.00;;;;;;6185978;23;20540;-89
2022/04/13 03:37:00;;;;;;;17.27;9.50;;;6.30;1.00;;;;;;6186357;23;20166;-89
2022/04/13 03:39:27;;;;;;;16.63;10.27;;;6.30;1.00;;;;;;6186432;23;20245;-87
2022/04/13 03:41:56;;;;;;;14.57;9.27;;;6.30;1.00;;;;;;6186108;23;20224;-90
2022/04/13 03:44:23;;;;;;;17.03;10.10;;;6.30;1.00;;;;;;6160071;23;20666;-87
2022/04/13 03:46:51;;;;;;;14.27;9.57;;;6.30;1.00;;;;;;6185862;23;20173;-88
2022/04/13 03:49:18;;;;;;;14.80;10.37;;;6.20;1.00;;;;;;6186365;23;20538;-89
2022/04/13 03:51:45;;;;;;;18.13;10.40;;;6.20;1.00;;;;;;6186303;23;20181;-89
2022/04/13 03:54:12;;;;;;;15.73;9.60;;;6.30;1.00;;;;;;6187134;23;20177;-90
2022/04/13 03:56:39;;;;;;;16.70;10.73;;;6.20;1.00;;;;;;6186265;23;20165;-89
2022/04/13 03:59:08;;;;;;;16.87;9.73;;;6.30;1.00;;;;;;6186485;23;20189;-89
2022/04/13 04:01:35;;;;;;;18.30;10.77;;;6.30;1.00;;;;;;6191427;23;20498;-88
2022/04/13 04:04:02;;;;;;;17.33;11.03;;;6.30;1.00;;;;;;6192334;23;20165;-88
2022/04/13 04:06:29;;;;;;;17.27;10.70;;;6.40;1.00;;;;;;6191516;23;20173;-88
2022/04/13 04:08:56;;;;;;;15.83;9.97;;;6.40;1.00;;;;;;6191688;23;20173;-88
2022/04/13 04:11:23;;;;;;;16.13;11.07;;;6.40;1.00;;;;;;6191846;23;20177;-88
2022/04/13 04:13:50;;;;;;;16.87;10.70;;;6.50;1.00;;;;;;6188016;23;20225;-87
2022/04/13 04:16:19;;;;;;;14.40;9.80;;;6.50;1.00;;;;;;6163284;23;20221;-88
2022/04/13 04:18:48;;;;;;;17.57;11.27;;;6.50;1.00;;;;;;6162327;23;20194;-87
2022/04/13 04:21:15;;;;;;;18.90;10.73;;;6.60;1.00;;;;;;6162995;23;20253;-89
2022/04/13 04:23:42;;;;;;;17.33;10.80;;;6.60;1.00;;;;;;6163841;23;20174;-88
2022/04/13 04:26:09;;;;;;;18.17;10.20;;;6.70;1.00;;;;;;6163799;23;20221;-87
2022/04/13 04:28:36;;;;;;;18.43;11.13;;;6.70;1.00;;;;;;6163591;23;20162;-90
2022/04/13 04:31:04;;;;;;;19.27;11.07;;;6.80;1.00;;;;;;6164346;23;20181;-89
2022/04/13 04:33:32;;;;;;;16.37;10.90;;;6.90;1.00;;;;;;6165368;23;20170;-89
2022/04/13 04:35:59;;;;;;;20.10;11.57;;;7.00;1.00;;;;;;6166072;23;20175;-87
2022/04/13 04:38:30;;;;;;;21.57;11.80;;;7.10;1.00;;;;;;6163400;23;20544;-88
2022/04/13 04:40:57;;;;;;;17.57;10.47;;;7.20;1.00;;;;;;6156051;23;20218;-89
2022/04/13 04:43:24;;;;;;;16.23;10.53;;;7.30;1.00;;;;;;6155831;23;20166;-88
2022/04/13 04:45:51;;;;;;;19.53;11.40;;;7.40;1.00;;;;;;6155959;23;20646;-89
2022/04/13 04:48:18;;;;;;;17.73;11.37;;;7.50;1.00;;;;;;6155655;23;20179;-88
2022/04/13 04:50:47;;;;;;;18.97;11.30;;;7.60;1.00;;;;;;6155532;23;20228;-88
2022/04/13 04:53:14;;;;;;;17.70;12.07;;;7.60;1.00;;;;;;6155126;23;20226;-88
2022/04/13 04:55:42;;;;;;;21.27;11.97;;;7.70;1.00;;;;;;6155154;23;20705;-87
2022/04/13 04:58:10;;;;;;;18.17;11.30;;;7.90;1.00;;;;;;6155508;23;20523;-88
2022/04/13 05:00:37;;;;;;;19.50;12.30;;;8.00;1.00;;;;;;6155419;23;20662;-87
2022/04/13 05:03:04;;;;;;;18.50;11.37;;;8.40;1.00;;;;;;6155276;23;20175;-88
2022/04/13 05:05:31;;;;;;;16.80;10.33;;;9.20;1.00;;;;;;6155656;23;20245;-87
2022/04/13 05:08:00;;;;;;;15.73;11.00;;;9.90;1.00;;;;;;6157804;23;20168;-87
2022/04/13 05:10:27;;;;;;;19.83;11.90;;;10.60;1.00;;;;;;6156266;23;20225;-88
2022/04/13 05:12:56;;;;;;;21.03;11.83;;;11.20;1.00;;;;;;6156011;23;20242;-88
2022/04/13 05:15:23;;;;;;;19.23;11.00;;;11.80;1.00;;;;;;6178649;23;20193;-90
2022/04/13 05:17:50;;;;;;;16.63;10.07;;;12.40;1.00;;;;;;6185459;23;20636;-89
2022/04/13 05:20:18;;;;;;;18.37;11.33;;;13.00;1.00;;;;;;6185135;23;20221;-90
2022/04/13 05:22:45;;;;;;;20.13;11.40;;;13.40;1.00;;;;;;6185568;23;20183;-90
2022/04/13 05:25:15;;;;;;;19.87;11.40;;;14.00;1.00;;;;;;6187167;23;20230;-90
2022/04/13 05:27:42;;;;;;;20.92;11.77;;;14.50;1.00;;;;;;6184564;23;20210;-90
2022/04/13 05:30:10;;;;;;;16.33;10.68;;;14.90;1.00;;;;;;6183883;23;20230;-88
2022/04/13 05:32:48;;;;;;;14.98;10.77;;;15.40;1.00;;;;;;6185198;23;20320;-91
2022/04/13 05:35:15;;;;;;;16.98;11.23;;;15.70;1.00;;;;;;6185869;23;20160;-89
2022/04/13 05:37:42;;;;;;;15.38;11.02;;;16.10;1.00;;;;;;6184983;23;20170;-89
2022/04/13 05:40:10;;;;;;;18.02;10.13;;;16.50;1.00;;;;;;6185047;23;20193;-89
2022/04/13 05:42:38;;;;;;;17.95;12.05;;;17.00;1.00;;;;;;6185441;23;20169;-89
2022/04/13 05:45:07;;;;;;;21.02;11.10;;;17.60;1.00;;;;;;6184751;23;20285;-89
2022/04/13 05:47:34;;;;;;;17.98;11.30;;;18.00;1.00;;;;;;6184939;23;20224;-89
2022/04/13 05:50:02;;;;;;;19.00;11.45;;;18.20;1.00;;;;;;6184846;23;20177;-89
2022/04/13 05:52:30;;;;;;;15.60;10.93;;;18.20;1.00;;;;;;6185238;23;20204;-90
2022/04/13 05:54:57;;;;;;;17.35;11.55;;;18.40;1.00;;;;;;6184825;23;20658;-90
2022/04/13 05:57:24;;;;;;;17.70;11.38;;;18.40;1.00;;;;;;6184809;23;20220;-89
2022/04/13 05:59:53;;;;;;;19.90;11.68;;;18.40;1.00;;;;;;6185185;23;20575;-89
2022/04/13 06:02:20;;;;;;;17.42;11.48;;;18.20;1.00;;;;;;6184867;23;20174;-89
2022/04/13 06:04:47;;;;;;;18.25;11.73;;;18.30;1.00;;;;;;6185929;23;20222;-89
2022/04/13 06:07:14;;;;;;;15.68;11.18;;;18.50;1.00;;;;;;6186022;23;20560;-89
2022/04/13 06:09:41;;;;;;;15.80;10.98;;;18.80;1.00;;;;;;6184888;23;20221;-89
2022/04/13 06:12:09;;;;;;;15.48;10.68;;;19.10;1.00;;;;;;6184910;23;20696;-90
2022/04/13 06:14:36;;;;;;;16.42;11.90;;;19.50;1.00;;;;;;6170868;23;20194;-90
2022/04/13 06:17:05;;;;;;;16.60;11.18;;;19.80;1.00;;;;;;6153848;23;20696;-89
2022/04/13 06:19:32;;;;;;;16.15;10.82;;;20.30;1.00;;;;;;6155192;23;20203;-90
2022/04/13 06:21:59;;;;;;;15.45;11.05;;;20.60;1.00;;;;;;6155290;23;20173;-89
2022/04/13 06:24:26;;;;;;;14.73;10.93;;;20.50;1.00;;;;;;6154533;23;20695;-90
2022/04/13 06:26:53;;;;;;;18.27;11.25;;;20.80;1.00;;;;;;6155042;23;20179;-90
2022/04/13 06:29:20;;;;;;;14.07;10.55;;;21.00;1.00;;;;;;6154357;23;20174;-90
2022/04/13 06:31:47;;;;;;;16.48;12.43;;;21.20;1.00;;;;;;6155194;23;20174;-91
2022/04/13 06:34:16;;;;;;;15.20;11.00;;;21.40;1.00;;;;;;6155031;23;20167;-91
2022/04/13 06:36:43;;;;;;;13.88;10.85;;;21.90;1.00;;;;;;6156406;23;20202;-90
2022/04/13 06:39:11;;;;;;;18.23;11.82;;;22.30;1.00;;;;;;6155624;23;20174;-91
2022/04/13 06:41:38;;;;;;;18.13;11.18;;;22.70;1.00;;;;;;6155344;23;20249;-90
2022/04/13 06:44:05;;;;;;;16.52;11.18;;;22.90;1.00;;;;;;6154826;23;20570;-90
2022/04/13 06:46:36;;;;;;;17.08;11.50;;;22.70;1.00;;;;;;6156255;23;20257;-90
2022/04/13 06:49:03;;;;;;;15.43;11.35;;;22.70;1.00;;;;;;6155678;23;20194;-91
2022/04/13 06:51:33;;;;;;;15.07;10.70;;;23.20;1.00;;;;;;6155872;23;20171;-91
2022/04/13 06:54:00;;;;;;;14.75;10.80;;;23.60;1.00;;;;;;6154700;23;20170;-90
2022/04/13 06:56:27;;;;;;;18.40;12.15;;;23.60;1.00;;;;;;6128760;23;20193;-90
2022/04/13 06:58:54;;;;;;;14.90;11.15;;;23.80;1.00;;;;;;6155215;23;20171;-91
2022/04/13 07:01:21;;;;;;;16.75;11.95;;;24.20;1.00;;;;;;6154140;23;20245;-90
2022/04/13 07:03:48;;;;;;;13.65;10.50;;;24.70;1.00;;;;;;6155016;23;20225;-89
2022/04/13 07:06:15;;;;;;;13.50;10.52;;;24.80;1.00;;;;;;6154964;23;20170;-90
2022/04/13 07:08:44;;;;;;;13.82;10.60;;;24.80;1.00;;;;;;6155015;23;20222;-91
2022/04/13 07:11:11;;;;;;;15.15;10.80;;;24.80;1.00;;;;;;6154998;23;20167;-91
2022/04/13 07:13:38;;;;;;;13.43;10.25;;;25.00;1.00;;;;;;6156940;23;20178;-91
2022/04/13 07:16:05;;;;;;;14.02;10.38;;;25.20;1.00;;;;;;6185609;23;20193;-88
2022/04/13 07:18:34;;;;;;;16.10;10.40;;;25.20;1.00;;;;;;6186645;23;20559;-89
2022/04/13 07:21:01;;;;;;;15.02;10.55;;;25.10;1.00;;;;;;6187163;23;20236;-87
2022/04/13 07:23:29;;;;;;;12.50;10.43;;;24.80;1.00;;;;;;6187078;23;20166;-88
2022/04/13 07:25:57;;;;;;;15.48;11.52;;;24.60;1.00;;;;;;6187108;23;20178;-88
2022/04/13 07:28:24;;;;;;;14.80;11.63;;;24.60;1.00;;;;;;6186538;23;20174;-89
2022/04/13 07:30:51;;;;;;;16.27;11.80;;;24.80;1.00;;;;;;6186587;23;20220;-88
2022/04/13 07:33:19;;;;;;;14.38;10.20;;;24.90;1.00;;;;;;6159804;23;20513;-88
2022/04/13 07:35:46;;;;;;;15.90;11.20;;;24.60;1.00;;;;;;6186548;23;20204;-88
2022/04/13 07:38:13;;;;;;;18.30;11.65;;;24.40;1.00;;;;;;6186516;23;20162;-88
2022/04/13 07:40:40;;;;;;;15.25;10.98;;;24.10;1.00;;;;;;6186309;23;20185;-89
2022/04/13 07:43:09;;;;;;;14.40;10.50;;;24.00;1.00;;;;;;6186779;23;20178;-89
2022/04/13 07:45:36;;;;;;;15.23;11.23;;;24.10;1.00;;;;;;6187093;23;20189;-88
2022/04/13 07:48:03;;;;;;;18.13;12.27;;;24.40;1.00;;;;;;6186298;23;20181;-88
2022/04/13 07:50:30;;;;;;;17.20;11.70;;;24.60;1.00;;;;;;6184822;23;20551;-88
2022/04/13 07:52:59;;;;;;;15.77;11.00;;;24.70;1.00;;;;;;6186493;23;20700;-89
2022/04/13 07:55:26;;;;;;;14.60;11.82;;;24.80;1.00;;;;;;6186645;23;20178;-89
2022/04/13 07:57:53;;;;;;;14.27;10.43;;;24.90;1.00;;;;;;6186469;23;20290;-89
2022/04/13 08:00:21;;;;;;;14.00;10.90;;;25.30;1.00;;;;;;6185567;23;20193;-87
2022/04/13 08:02:48;;;;;;;14.27;11.50;;;25.40;1.00;;;;;;6186001;23;20632;-88
2022/04/13 08:05:16;;;;;;;14.20;10.98;;;25.30;1.00;;;;;;6185714;23;20710;-89
2022/04/13 08:07:44;;;;;;;16.55;12.07;;;25.20;1.00;;;;;;6186451;23;20174;-88
2022/04/13 08:10:12;;;;;;;13.27;11.05;;;25.30;1.00;;;;;;6185926;23;20216;-88
2022/04/13 08:12:40;;;;;;;16.02;10.77;;;25.40;1.00;;;;;;6186257;23;20172;-89
2022/04/13 08:15:09;;;;;;;17.67;11.95;;;25.30;1.00;;;;;;6166198;23;20198;-88
2022/04/13 08:17:38;;;;;;;15.50;12.25;;;25.20;1.00;;;;;;6156021;23;20167;-89
2022/04/13 08:20:07;;;;;;;12.25;10.38;;;25.20;1.00;;;;;;6155863;23;20170;-89
2022/04/13 08:22:35;;;;;;;15.68;10.80;;;25.20;1.00;;;;;;6156022;23;20181;-90
2022/04/13 08:25:02;;;;;;;14.68;11.40;;;25.30;1.00;;;;;;6155609;23;20529;-87
2022/04/13 08:27:29;;;;;;;14.95;11.77;;;25.10;1.00;;;;;;6156267;23;20178;-89
2022/04/13 08:29:56;;;;;;;15.00;11.75;;;24.80;1.00;;;;;;6155166;23;20166;-90
2022/04/13 08:32:23;;;;;;;15.52;11.10;;;24.60;1.00;;;;;;6155737;23;20629;-88
2022/04/13 08:34:53;;;;;;;14.90;11.63;;;24.60;1.00;;;;;;6156491;23;20553;-89
2022/04/13 08:37:20;;;;;;;14.45;10.98;;;24.70;1.00;;;;;;6156092;23;20174;-90
2022/04/13 08:39:47;;;;;;;13.93;11.38;;;24.70;1.00;;;;;;6155717;23;20233;-89
2022/04/13 08:42:15;;;;;;;70.15;52.58;;;24.80;1.00;;;;;;6156129;23;20194;-90
2022/04/13 08:44:51;;;;;;;17.73;11.73;;;24.80;1.00;;;;;;6156613;23;20174;-89
2022/04/13 08:47:20;;;;;;;16.70;10.90;;;25.00;1.00;;;;;;6156095;23;20253;-90
2022/04/13 08:49:50;;;;;;;14.13;11.52;;;24.90;1.00;;;;;;6156690;23;20174;-90
2022/04/13 08:52:21;;;;;;;17.75;12.93;;;24.80;1.00;;;;;;6157008;23;20250;-89
2022/04/13 08:54:57;;;;;;;15.30;10.77;;;24.90;1.00;;;;;;6155505;23;20205;-89
2022/04/13 08:57:29;;;;;;;16.00;12.27;;;25.00;1.00;;;;;;6155439;23;20146;-88
2022/04/13 09:00:05;;;;;;;14.00;10.82;;;25.00;1.00;;;;;;6155876;23;20155;-88
2022/04/13 09:03:09;;;;;;;14.00;10.55;;;25.00;1.00;;;;;;6155418;23;20210;-89
2022/04/13 09:05:38;;;;;;;15.35;11.38;;;25.00;1.00;;;;;;6155568;23;20173;-89
2022/04/13 09:08:13;;;;;;;14.10;11.25;;;24.90;1.00;;;;;;6155588;23;20518;-88
2022/04/13 09:10:41;;;;;;;16.60;11.32;;;25.20;1.00;;;;;;6156097;23;20157;-88
2022/04/13 09:13:10;;;;;;;16.88;11.15;;;25.20;1.00;;;;;;6155702;23;20210;-89
2022/04/13 09:15:40;;;;;;;13.65;10.40;;;24.90;1.00;;;;;;6181207;23;20731;-89
2022/04/13 09:18:08;;;;;;;14.90;10.98;;;24.50;1.00;;;;;;6185657;23;20174;-88
2022/04/13 09:20:35;;;;;;;12.85;10.15;;;24.30;1.00;;;;;;6185024;23;20676;-88
2022/04/13 09:23:02;;;;;;;16.17;11.32;;;24.10;1.00;;;;;;6185169;23;20628;-88
2022/04/13 09:25:32;;;;;;;22.27;15.95;;;24.00;1.00;;;;;;6184651;23;20178;-88
2022/04/13 09:28:00;;;;;;;15.23;11.98;;;24.00;1.00;;;;;;6185013;23;20204;-87
2022/04/13 09:30:29;;;;;;;14.13;11.27;;;24.10;1.00;;;;;;6183837;23;20690;-88
2022/04/13 09:32:56;;;;;;;13.52;10.30;;;24.30;1.00;;;;;;6184084;23;20224;-88
2022/04/13 09:35:23;;;;;;;14.75;10.73;;;24.40;1.00;;;;;;6184808;23;20554;-88
2022/04/13 09:37:50;;;;;;;15.65;11.98;;;24.20;1.00;;;;;;6185132;23;20169;-88
2022/04/13 09:40:43;;;;;;;14.88;10.57;;;24.00;1.00;;;;;;6184883;23;20173;-88
2022/04/13 09:43:11;;;;;;;16.92;11.85;;;23.80;1.00;;;;;;6156486;23;20227;-87
2022/04/13 09:45:41;;;;;;;14.00;10.98;;;23.50;1.00;;;;;;6184968;23;20543;-87
2022/04/13 09:48:10;;;;;;;14.63;11.30;;;23.20;1.00;;;;;;6184955;23;20170;-88
2022/04/13 09:50:38;;;;;;;16.35;11.38;;;22.80;1.00;;;;;;6184571;23;20236;-87
2022/04/13 09:53:07;;;;;;;16.25;13.00;;;22.40;1.00;;;;;;6184708;23;20231;-88
2022/04/13 09:55:43;;;;;;;16.35;11.05;;;22.10;1.00;;;;;;6185055;23;20173;-88
2022/04/13 09:58:12;;;;;;;15.77;12.05;;;21.90;1.00;;;;;;6184858;23;20600;-87
2022/04/13 10:00:39;;;;;;;16.55;11.75;;;21.90;1.00;;;;;;6184647;23;20636;-87
2022/04/13 10:03:14;;;;;;;14.63;11.20;;;21.80;1.00;;;;;;6184657;23;20162;-87
2022/04/13 10:05:46;;;;;;;18.35;12.15;;;21.60;1.00;;;;;;6184701;23;20157;-88
2022/04/13 10:08:15;;;;;;;16.35;12.07;;;21.60;1.00;;;;;;6184556;23;20601;-88
2022/04/13 10:10:45;;;;;;;19.23;12.15;;;21.60;1.00;;;;;;6184490;23;20558;-87
2022/04/13 10:13:13;;;;;;;14.75;11.73;;;21.50;1.00;;;;;;6184680;23;20161;-88
2022/04/13 10:15:40;;;;;;;16.90;11.65;;;21.20;1.00;;;;;;6157886;23;20245;-87
2022/04/13 10:18:07;;;;;;;17.58;11.57;;;21.20;1.00;;;;;;6155091;23;20170;-87
2022/04/13 10:20:44;;;;;;;16.65;12.10;;;20.90;1.00;;;;;;6154741;23;20543;-87
2022/04/13 10:23:12;;;;;;;17.23;11.68;;;20.80;1.00;;;;;;6154845;23;20147;-87
2022/04/13 10:25:39;;;;;;;18.40;11.45;;;20.60;1.00;;;;;;6155021;23;20174;-88
2022/04/13 10:28:11;;;;;;;17.52;12.23;;;20.60;1.00;;;;;;6154996;23;20228;-88
2022/04/13 10:30:40;;;;;;;18.88;12.65;;;20.60;1.00;;;;;;6154746;23;20169;-89
2022/04/13 10:33:08;;;;;;;15.05;11.25;;;20.60;1.00;;;;;;6155046;23;20174;-88
2022/04/13 10:35:37;;;;;;;19.15;12.57;;;20.60;1.00;;;;;;6154701;23;20170;-89
2022/04/13 10:38:04;;;;;;;17.85;13.25;;;20.50;1.00;;;;;;6154721;23;20550;-89
2022/04/13 10:40:33;;;;;;;20.10;13.63;;;20.50;1.00;;;;;;6154199;23;20174;-89
2022/04/13 10:43:01;;;;;;;17.80;12.82;;;20.50;1.00;;;;;;6153972;23;20258;-88
2022/04/13 10:45:31;;;;;;;21.08;13.73;;;20.40;1.00;;;;;;6154853;23;20198;-88
2022/04/13 10:48:03;;;;;;;19.27;11.68;;;20.50;1.00;;;;;;6155090;23;20170;-87
2022/04/13 10:50:39;;;;;;;15.95;11.55;;;20.40;1.00;;;;;;6155062;23;20155;-87
2022/04/13 10:53:21;;;;;;;16.85;12.35;;;20.30;1.00;;;;;;6156287;23;20221;-88
2022/04/13 10:55:57;;;;;;;21.23;15.07;;;20.30;1.00;;;;;;6157206;23;20158;-87
2022/04/13 10:58:31;;;;;;;18.60;12.95;;;20.30;1.00;;;;;;6157033;23;20221;-86
2022/04/13 11:01:04;;;;;;;15.70;12.10;;;20.30;1.00;;;;;;6156678;23;20221;-86
2022/04/13 11:03:35;;;;;;;17.60;13.02;;;20.30;1.00;;;;;;6156644;23;20616;-86
2022/04/13 11:06:04;;;;;;;18.33;12.50;;;20.30;1.00;;;;;;6156873;23;20154;-86
2022/04/13 11:08:36;;;;;;;17.90;13.55;;;20.20;1.00;;;;;;6156772;23;20197;-87
2022/04/13 11:11:04;;;;;;;20.40;14.23;;;20.30;1.00;;;;;;6156900;23;20167;-87
2022/04/13 11:13:32;;;;;;;17.88;13.27;;;20.30;1.00;;;;;;6156608;23;20174;-87
2022/04/13 11:16:15;;;;;;;18.58;12.73;;;20.40;1.00;;;;;;6186322;23;20228;-86
2022/04/13 11:18:42;;;;;;;21.83;13.73;;;20.50;1.00;;;;;;6186636;23;20540;-87
2022/04/13 11:21:11;;;;;;;21.27;12.80;;;20.50;1.00;;;;;;6185738;23;20217;-87
2022/04/13 11:23:49;;;;;;;17.00;13.57;;;20.50;1.00;;;;;;6186485;23;20231;-86
2022/04/13 11:26:24;;;;;;;19.30;13.38;;;20.40;1.00;;;;;;6186125;23;20702;-86
2022/04/13 11:29:17;;;;;;;19.95;13.68;;;20.40;1.00;;;;;;6186301;23;20596;-86
2022/04/13 11:32:16;;;;;;;19.88;13.38;;;20.50;1.00;;;;;;6186330;23;20159;-86
2022/04/13 11:34:45;;;;;;;20.98;14.25;;;20.60;1.00;;;;;;6066398;23;20638;-86
2022/04/13 11:37:14;;;;;;;19.25;14.23;;;20.60;1.00;;;;;;6161618;23;20174;-86
2022/04/13 11:39:46;;;;;;;18.65;14.07;;;20.70;1.00;;;;;;6186246;23;20177;-86
2022/04/13 11:42:18;;;;;;;19.38;14.68;;;20.80;1.00;;;;;;6185658;23;20719;-87
2022/04/13 11:44:48;;;;;;;19.13;14.63;;;20.70;1.00;;;;;;6186162;23;20164;-86
2022/04/13 11:47:18;;;;;;;19.33;14.10;;;20.60;1.00;;;;;;6185916;23;20209;-87
2022/04/13 11:50:01;;;;;;;19.85;14.48;;;20.60;1.00;;;;;;6185770;23;20630;-86
2022/04/13 11:52:42;;;;;;;18.05;14.75;;;20.60;1.00;;;;;;6185701;23;20170;-86
2022/04/13 11:55:19;;;;;;;22.50;14.70;;;20.60;1.00;;;;;;6186078;23;20233;-87
2022/04/13 11:58:21;;;;;;;20.20;14.02;;;20.50;1.00;;;;;;6185640;23;20165;-85
2022/04/13 12:00:57;;;;;;;17.73;14.10;;;20.40;1.00;;;;;;6185757;23;20169;-85
2022/04/13 12:03:27;;;;;;;20.25;14.80;;;20.30;1.00;;;;;;6186107;23;20177;-87
2022/04/13 12:05:56;;;;;;;18.35;14.27;;;20.30;1.00;;;;;;6186496;23;20158;-89
2022/04/13 12:08:27;;;;;;;20.52;14.77;;;20.30;1.00;;;;;;6186080;23;20178;-89
2022/04/13 12:10:59;;;;;;;18.60;14.43;;;20.30;1.00;;;;;;6187219;23;20200;-88
2022/04/13 12:13:27;;;;;;;21.27;15.13;;;20.30;1.00;;;;;;6187155;23;20225;-89
2022/04/13 12:15:55;;;;;;;18.75;14.07;;;20.20;1.00;;;;;;6159577;23;20248;-91
2022/04/13 12:18:26;;;;;;;24.13;14.60;;;20.10;1.00;;;;;;6157536;23;20162;-90
2022/04/13 12:21:07;;;;;;;20.33;14.45;;;20.00;1.00;;;;;;6158136;23;20159;-91
2022/04/13 12:23:37;;;;;;;19.45;14.00;;;20.10;1.00;;;;;;6157642;23;20229;-90
2022/04/13 12:26:05;;;;;;;18.88;14.38;;;20.20;1.00;;;;;;6156260;23;20672;-89
2022/04/13 12:28:32;;;;;;;16.70;13.80;;;20.30;1.00;;;;;;6157312;23;20174;-89
2022/04/13 12:31:00;;;;;;;20.00;13.98;;;20.10;1.00;;;;;;6158343;23;20205;-90
2022/04/13 12:33:29;;;;;;;17.45;13.57;;;20.10;1.00;;;;;;6158856;23;20179;-89
2022/04/13 12:35:59;;;;;;;20.80;12.82;;;20.00;1.00;;;;;;6160379;23;20166;-91
2022/04/13 12:38:29;;;;;;;20.50;13.73;;;20.00;1.00;;;;;;6160205;23;20166;-88
2022/04/13 12:41:03;;;;;;;17.83;13.98;;;20.00;1.00;;;;;;6158330;23;20202;-89
2022/04/13 12:43:31;;;;;;;21.60;14.85;;;20.10;1.00;;;;;;6157331;23;20240;-89
2022/04/13 12:45:58;;;;;;;17.05;13.63;;;20.20;1.00;;;;;;6156192;23;20171;-89
2022/04/13 12:48:28;;;;;;;18.17;14.18;;;20.20;1.00;;;;;;6156769;23;20182;-91
2022/04/13 12:50:57;;;;;;;18.70;14.20;;;20.30;1.00;;;;;;6156872;23;20180;-89